Cockrell Hill, Texas
Current Conditions -  °F | °C
As of 11:53 AM on Monday 22 Dec 2014 (Local Time) from KRBD Reporting Station
Clear Clear  
Wind Chill: 67°   Ceiling: Unl
Heat Index: 67°   Visibility: 10mi
Dew Point: 41°   Wind: 14mph
Humidity: 39%   Direction: 260°W
Pressure: 29.58"   Gusts: 18mph
Location:  32.7371°N, 96.9045°W
Report Text: KRBD 221753Z 26012G16KT 10SM CLR 19/05 A2958 RMK AO2 SLP013 T01940050 10194 20128 58008
Loading
Personal Weather Stations






























Interactive Weather Map New forecast layout! Learn more

10-Day Weather Forecast

Advertisements
Track Severe Weather on mobile